Rareville, Vermont
Current Conditions -  °F | °C
As of 5:35 PM on Friday 19 Dec 2014 (Local Time) from KRUT Reporting Station
Overcast Overcast  
Wind Chill: 13°   Ceiling: 2100
Heat Index: 25°   Visibility: 10mi
Dew Point: 18°   Wind: 14mph
Humidity: 74%   Direction: 330°NNW
Pressure: 30.09"   Gusts: 17mph
Location:  43.5323°N, 73.1932°W
Report Text: KRUT 192235Z 33012G15KT 10SM OVC021 M04/M08 A3009 RMK AO1
Loading
Personal Weather Stations






























Interactive Weather Map New forecast layout! Learn more

10-Day Weather Forecast

Advertisements
Track Severe Weather on mobile